Bush, Illinois
Current Conditions -  °F | °C
As of 2:34 PM on Thursday 29 Jan 2015 (Local Time) from KMDH Reporting Station
Overcast Overcast  
Wind Chill: 34°   Ceiling: 2900
Heat Index: 42°   Visibility: 10mi
Dew Point: 30°   Wind: 16mph
Humidity: 62%   Direction: 300°WNW
Pressure: 30.18"   Gusts: 28mph
Location:  37.8209°N, 89.2055°W
Report Text: KMDH 292034Z 30014G24KT 10SM OVC029 06/M01 A3018 RMK AO2 T00561011
Loading
Personal Weather Stations






























Interactive Weather Map New forecast layout! Learn more

10-Day Weather Forecast

Advertisements
Track Severe Weather on mobile